Latest Weather Observations for St Helens

IDT60801

Issued at 8:21 am EST Tuesday 17 September 2019 (issued every 10 minutes, with the page automatically refreshed every 10 minutes)

About weather observations | Map of weather stations | Latest weather observations for TAS | Other Formats
Station Details ID: 092120 Name: ST HELENS AERODROME Lat: -41.34 Lon: 148.28 Height: 48.0 m
Data from the previous 72 hours. | See also: Recent months at St Helens
Date/Time
EST
Temp
°C
App
Temp
°C
Dew
Point
°C
Rel
Hum
%
Delta-T
°C
Wind Press
QNH
hPa
Press
MSL
hPa
Rain since
9am
mm
Dir  Spd
km/h
Gust
km/h
Spd
kts
Gust
kts
17/08:00am 3.2 -0.7 -1.2 73 1.6 NNW 9 11 5 6 1028.1 1028.2 0.0
17/07:30am 1.8 -3.2 -1.4 79 1.1 NW 15 19 8 10 1027.6 1027.7 0.0
17/07:00am 0.7 -4.4 -1.7 84 0.9 NNW 15 20 8 11 1027.3 1027.4 0.0
17/06:30am 0.0 -5.1 -1.9 87 0.7 NW 15 19 8 10 1026.9 1027.0 0.0
17/06:00am 0.0 -5.5 -2.2 85 0.7 NW 17 20 9 11 1026.6 1026.7 0.0
17/05:30am -0.1 -5.2 -2.2 86 0.7 NNW 15 19 8 10 1026.1 1026.2 0.0
17/05:00am 0.6 -4.5 -2.1 82 1.0 NW 15 19 8 10 1025.9 1026.0 0.0
17/04:30am 0.5 -4.2 -1.7 85 0.8 NW 13 15 7 8 1025.9 1026.0 0.0
17/04:00am 0.5 -4.2 -1.7 85 0.8 NW 13 19 7 10 1025.9 1026.0 0.0
17/03:30am 1.1 -4.0 -1.8 81 1.0 NW 15 17 8 9 1025.6 1025.7 0.0
17/03:00am 1.2 -3.1 -1.5 82 0.9 NW 11 15 6 8 1025.6 1025.7 0.0
17/02:30am 1.2 -3.4 -1.4 83 0.9 NW 13 19 7 10 1025.6 1025.7 0.0
17/02:00am 1.7 -2.9 -1.2 81 1.0 NW 13 15 7 8 1025.4 1025.5 0.0
17/01:30am 1.3 -2.2 -1.6 81 1.0 W 7 11 4 6 1025.7 1025.8 0.0
17/01:00am 1.7 -1.3 -2.1 76 1.3 WSW 4 7 2 4 1025.8 1025.9 0.0
17/12:30am 2.6 -1.3 -1.4 75 1.4 NNW 9 15 5 8 1025.5 1025.6 0.0
17/12:00am 2.6 -0.6 -0.3 81 1.1 NNW 6 7 3 4 1025.3 1025.3 0.0
 
Date/Time
EST
Temp
°C
App
Temp
°C
Dew
Point
°C
Rel
Hum
%
Delta-T
°C
Wind Press
QNH
hPa
Press
MSL
hPa
Rain since
9am
mm
Dir  Spd
km/h
Gust
km/h
Spd
kts
Gust
kts
16/11:30pm 3.2 0.2 -1.9 69 1.8 SW 4 7 2 4 1025.0 1025.1 0.0
16/11:00pm 4.8 1.2 -2.1 61 2.5 WNW 7 9 4 5 1024.9 1025.0 0.0
16/10:30pm 4.8 1.7 -2.5 59 2.6 SW 4 7 2 4 1024.7 1024.8 0.0
16/10:00pm 5.2 2.2 -1.5 62 2.5 NW 4 9 2 5 1024.6 1024.7 0.0
16/09:30pm 6.0 3.5 -3.6 50 3.4 CALM 0 6 0 3 1024.4 1024.5 0.0
16/09:00pm 7.0 4.1 -4.4 44 4.0 SW 2 11 1 6 1023.9 1024.0 0.0
16/08:30pm 7.4 3.8 -4.0 44 4.0 SW 6 7 3 4 1023.7 1023.8 0.0
16/08:00pm 7.5 4.6 -4.2 43 4.1 WSW 2 7 1 4 1023.2 1023.3 0.0
16/07:30pm 6.2 2.2 -1.9 56 3.0 SSW 9 13 5 7 1022.5 1022.6 0.0
16/07:00pm 6.2 2.5 -0.1 64 2.4 SSW 9 11 5 6 1021.7 1021.8 0.0
16/06:30pm 7.5 4.3 0.9 63 2.6 SSW 7 9 4 5 1021.0 1021.1 0.0
16/06:00pm 8.6 4.7 1.3 60 3.0 SSE 11 19 6 10 1020.6 1020.7 0.0
16/05:30pm 9.3 4.6 0.7 55 3.5 S 15 26 8 14 1020.2 1020.3 0.0
16/05:00pm 10.1 5.3 2.5 59 3.2 SSE 17 32 9 17 1019.4 1019.5 0.0
16/04:30pm 10.4 5.5 2.0 56 3.6 SSE 17 28 9 15 1018.7 1018.7 0.0
16/04:00pm 9.6 4.6 1.3 56 3.4 S 17 33 9 18 1018.0 1018.0 0.0
16/03:30pm 11.8 6.0 0.0 44 4.8 SSE 20 37 11 20 1017.4 1017.4 0.0
16/03:00pm 13.9 8.2 -3.8 29 6.8 S 17 26 9 14 1016.8 1016.8 0.0
16/02:30pm 13.5 7.1 -5.1 27 6.9 SSW 20 35 11 19 1016.6 1016.6 0.0
16/02:00pm 13.8 8.6 -3.0 31 6.6 SW 15 32 8 17 1016.2 1016.2 0.0
16/01:30pm 13.8 8.3 -1.8 34 6.3 SW 17 33 9 18 1016.0 1016.0 0.0
16/01:00pm 12.7 6.9 -4.4 30 6.4 SSW 17 32 9 17 1015.8 1015.8 0.0
16/12:30pm 13.5 7.1 -4.6 28 6.8 SSW 20 39 11 21 1015.5 1015.5 0.0
16/12:00pm 13.7 7.7 -2.7 32 6.4 SSW 19 37 10 20 1015.2 1015.3 0.0
16/11:30am 12.9 6.6 -3.8 31 6.4 SSW 20 33 11 18 1015.0 1015.0 0.0
16/11:00am 11.4 3.6 -3.9 34 5.7 SSW 28 48 15 26 1014.7 1014.7 0.0
16/10:59am 11.2 3.3 -4.5 33 5.8 SSW 28 48 15 26 1014.7 1014.7 0.0
16/10:30am 12.0 5.4 -3.0 35 5.8 SSW 22 44 12 24 1014.1 1014.1 0.0
16/10:00am 11.0 5.0 -2.8 38 5.3 SSW 19 35 10 19 1013.9 1013.9 0.0
16/09:30am 11.3 4.9 -1.5 41 5.0 SSW 22 37 12 20 1013.4 1013.4 0.0
16/09:00am 10.9 5.5 -1.5 42 4.9 SSW 17 43 9 23 1012.9 1012.9 0.0
16/08:30am 11.1 6.1 -1.0 43 4.8 SW 15 28 8 15 1011.9 1011.9 0.0
16/08:00am 10.4 5.1 -0.4 47 4.3 SW 17 33 9 18 1011.2 1011.2 0.0
16/07:30am 9.8 3.5 -1.0 47 4.2 WSW 22 43 12 23 1010.3 1010.3 0.0
16/07:00am 9.1 3.9 0.0 53 3.6 WSW 17 24 9 13 1009.8 1009.8 0.0
16/06:30am 9.1 4.4 0.6 55 3.4 WSW 15 26 8 14 1009.2 1009.2 0.0
16/06:00am 9.5 4.6 -0.4 50 3.9 WSW 15 26 8 14 1008.5 1008.4 0.0
16/05:30am 9.6 5.1 -0.3 50 3.9 W 13 30 7 16 1007.8 1007.8 0.0
16/05:00am 9.8 5.1 0.7 53 3.7 W 15 33 8 18 1006.9 1007.0 0.0
16/04:30am 9.6 5.4 1.8 58 3.3 WSW 13 30 7 16 1006.3 1006.4 0.0
16/04:00am 9.7 5.7 2.6 61 3.0 W 13 24 7 13 1005.6 1005.7 0.0
16/03:30am 9.6 5.6 2.9 63 2.9 WSW 13 30 7 16 1005.3 1005.4 0.0
16/03:00am 9.8 4.7 2.9 62 3.0 W 19 35 10 19 1005.3 1005.4 0.0
16/02:30am 9.7 5.3 2.6 61 3.0 W 15 35 8 19 1005.3 1005.4 0.0
16/02:00am 9.9 4.6 2.0 58 3.3 W 19 35 10 19 1005.4 1005.5 0.0
16/01:30am 10.1 5.4 1.2 54 3.7 W 15 26 8 14 1005.5 1005.6 0.0
16/01:00am 10.3 5.6 0.6 51 4.0 W 15 30 8 16 1005.6 1005.7 0.0
16/12:30am 10.3 6.0 0.9 52 3.9 W 13 24 7 13 1005.7 1005.8 0.0
16/12:00am 11.0 5.8 0.1 47 4.5 W 17 32 9 17 1005.8 1005.9 0.0
 
Date/Time
EST
Temp
°C
App
Temp
°C
Dew
Point
°C
Rel
Hum
%
Delta-T
°C
Wind Press
QNH
hPa
Press
MSL
hPa
Rain since
9am
mm
Dir  Spd
km/h
Gust
km/h
Spd
kts
Gust
kts
15/11:30pm 11.1 5.9 0.2 47 4.5 WNW 17 26 9 14 1005.6 1005.7 0.0
15/11:00pm 11.4 5.7 0.8 48 4.4 NW 20 32 11 17 1005.7 1005.8 0.0
15/10:30pm 11.7 5.9 -0.1 44 4.8 NW 20 30 11 16 1005.9 1006.0 0.0
15/10:00pm 12.2 6.3 -1.0 40 5.3 NW 20 32 11 17 1006.2 1006.3 0.0
15/09:30pm 12.0 6.7 1.9 50 4.3 WNW 19 26 10 14 1006.6 1006.7 0.0
15/09:00pm 12.0 7.7 3.3 55 3.9 W 15 28 8 15 1006.8 1007.0 0.0
15/08:30pm 12.0 7.5 4.2 59 3.5 WNW 17 28 9 15 1006.7 1006.8 0.0
15/08:00pm 12.4 8.3 4.1 57 3.8 W 15 30 8 16 1007.5 1007.5 0.0
15/07:30pm 12.7 7.6 4.2 56 3.9 WNW 20 33 11 18 1007.5 1007.5 0.0
15/07:00pm 13.1 7.9 3.7 53 4.2 WNW 20 37 11 20 1007.6 1007.6 0.0
15/06:30pm 13.1 8.7 4.5 56 3.9 WNW 17 24 9 13 1007.5 1007.5 0.0
15/06:00pm 13.3 10.4 4.5 55 4.1 WNW 9 13 5 7 1007.6 1007.6 0.0
15/05:30pm 14.0 9.2 4.6 53 4.4 NW 19 26 10 14 1007.8 1007.8 0.0
15/05:00pm 14.6 9.4 3.7 48 5.0 NW 20 33 11 18 1007.5 1007.5 0.0
15/04:30pm 15.3 12.3 5.8 53 4.6 W 11 20 6 11 1007.8 1007.8 0.0
15/04:00pm 16.2 12.1 6.1 51 4.9 W 17 26 9 14 1007.7 1007.7 0.0
15/03:30pm 16.6 12.4 7.3 54 4.6 WNW 19 32 10 17 1007.3 1007.4 0.0
15/03:00pm 17.8 13.3 6.3 47 5.7 WNW 19 32 10 17 1007.3 1007.4 0.0
15/02:30pm 19.0 14.5 6.8 45 6.1 WNW 20 35 11 19 1007.0 1007.1 0.0
15/02:00pm 19.9 15.9 6.6 42 6.7 W 17 35 9 19 1006.9 1007.0 0.0
15/01:30pm 19.8 15.7 7.9 46 6.1 WNW 19 33 10 18 1007.1 1007.2 0.0
15/01:00pm 19.6 15.7 7.0 44 6.4 WNW 17 30 9 16 1007.6 1007.6 0.0
15/12:30pm 19.7 15.2 7.1 44 6.4 WNW 20 35 11 19 1008.0 1008.0 0.0
15/12:00pm 20.0 15.8 7.4 44 6.5 W 19 41 10 22 1008.2 1008.3 0.0
15/11:30am 20.2 15.9 6.9 42 6.8 WNW 19 33 10 18 1008.3 1008.3 0.0
15/11:00am 19.7 16.1 6.8 43 6.5 W 15 26 8 14 1008.7 1008.7 0.0
15/10:30am 19.5 15.4 7.9 47 6.0 WNW 19 32 10 17 1009.1 1009.1 0.0
15/10:00am 17.4 13.8 9.8 61 4.0 NNE 19 24 10 13 1009.6 1009.6 0.0
15/09:30am 17.2 14.0 10.1 63 3.8 N 17 22 9 12 1010.0 1010.0 0.0
15/09:00am 16.2 13.0 10.1 67 3.2 N 17 24 9 13 1010.1 1010.1 0.0
15/08:30am 16.1 12.8 9.5 65 3.4 NNW 17 24 9 13 1010.2 1010.2 0.0
15/08:00am 15.1 12.3 9.9 71 2.7 NW 15 24 8 13 1010.0 1010.0 0.0
15/07:30am 14.1 10.9 9.9 76 2.2 NNW 17 26 9 14 1009.7 1009.7 0.0
15/07:00am 13.5 11.0 9.7 78 2.0 NNW 13 24 7 13 1009.3 1009.3 0.0
15/06:30am 13.3 10.8 9.7 79 1.8 NNW 13 24 7 13 1009.1 1009.1 0.0
15/06:00am 13.0 10.0 9.4 79 1.8 NNW 15 28 8 15 1008.7 1008.8 0.0
15/05:30am 12.8 8.5 9.3 79 1.8 NW 22 35 12 19 1009.0 1009.0 0.0
15/05:00am 12.9 8.6 9.2 78 1.9 NW 22 32 12 17 1008.9 1008.9 0.0
15/04:30am 12.8 8.0 8.7 76 2.1 NW 24 39 13 21 1009.1 1009.1 0.0
15/04:00am 12.8 7.1 8.3 74 2.2 NW 28 46 15 25 1009.3 1009.3 0.0
15/03:30am 13.1 6.9 8.0 71 2.5 NW 30 50 16 27 1008.9 1008.9 0.0
15/03:29am 13.0 6.8 7.9 71 2.5 NW 30 50 16 27 1008.9 1008.9 0.0
15/03:00am 12.9 6.1 7.1 68 2.8 NW 32 44 17 24 1009.4 1009.4 0.0
15/02:45am 13.1 7.1 6.9 66 3.0 NW 28 46 15 25 1009.2 1009.2 0.0
15/02:30am 12.9 7.2 6.5 65 3.1 WNW 26 41 14 22 1009.7 1009.7 0.0
15/02:15am 12.8 6.5 5.9 63 3.3 NW 28 46 15 25 1009.8 1009.8 0.0
15/02:00am 12.5 6.1 5.2 61 3.4 NW 28 43 15 23 1010.0 1010.0 0.0
15/01:30am 12.2 6.4 4.2 58 3.6 NW 24 41 13 22 1010.8 1010.8 0.0
15/01:00am 12.4 5.9 4.6 59 3.6 WNW 28 41 15 22 1011.7 1011.7 0.0
15/12:30am 12.3 6.8 6.1 66 2.9 WNW 24 44 13 24 1012.1 1012.1 0.0
15/12:00am 12.4 7.8 5.6 63 3.2 W 19 35 10 19 1012.2 1012.2 0.0
 
Date/Time
EST
Temp
°C
App
Temp
°C
Dew
Point
°C
Rel
Hum
%
Delta-T
°C
Wind Press
QNH
hPa
Press
MSL
hPa
Rain since
9am
mm
Dir  Spd
km/h
Gust
km/h
Spd
kts
Gust
kts
14/11:30pm 12.2 7.7 4.2 58 3.6 W 17 37 9 20 1012.8 1012.8 0.0
14/11:00pm 12.0 7.8 3.8 57 3.7 WNW 15 28 8 15 1013.5 1013.5 0.0
14/10:30pm 12.2 8.0 3.7 56 3.8 W 15 26 8 14 1014.5 1014.5 0.0
14/10:00pm 12.3 7.8 4.0 57 3.7 W 17 30 9 16 1014.8 1014.8 0.0
14/09:30pm 12.6 7.9 5.1 60 3.5 WNW 19 30 10 16 1014.8 1014.8 0.0
14/09:00pm 12.8 8.6 5.9 63 3.3 W 17 26 9 14 1015.0 1015.1 0.0
14/08:30pm 12.5 8.8 6.5 67 2.9 W 15 28 8 15 1014.9 1014.9 0.0
14/08:00pm 12.4 9.5 6.7 68 2.7 W 11 19 6 10 1015.1 1015.1 0.0
14/07:30pm 12.6 8.2 6.4 66 3.0 WNW 19 24 10 13 1015.5 1015.5 0.0
14/07:00pm 12.8 9.2 6.6 66 3.0 WNW 15 22 8 12 1015.7 1015.7 0.0
14/06:30pm 13.5 10.2 6.4 62 3.4 W 13 22 7 12 1015.9 1015.9 0.0
14/06:00pm 13.8 10.0 5.9 59 3.8 WSW 15 30 8 16 1015.8 1015.9 0.0
14/05:30pm 14.6 11.3 6.2 57 4.0 W 13 24 7 13 1016.2 1016.2 0.0
14/05:00pm 15.6 11.9 6.3 54 4.5 W 15 28 8 15 1016.2 1016.2 0.0
14/04:30pm 16.3 12.8 7.3 55 4.5 WNW 15 28 8 15 1016.0 1016.0 0.0
14/04:00pm 17.2 12.8 7.3 52 5.0 NW 20 35 11 19 1016.0 1016.0 0.0
14/03:30pm 18.0 14.3 6.5 47 5.7 WNW 15 26 8 14 1016.1 1016.1 0.0
14/03:00pm 18.3 15.0 6.2 45 6.0 WNW 13 24 7 13 1016.4 1016.5 0.0
14/02:30pm 17.7 15.5 6.3 47 5.6 NNE 7 15 4 8 1016.8 1016.8 0.0
14/02:00pm 17.1 13.8 4.8 44 5.9 NW 11 17 6 9 1017.0 1017.0 0.0
14/01:30pm 18.2 14.4 4.0 39 6.7 NW 13 17 7 9 1017.5 1017.5 0.0
14/01:00pm 16.8 13.2 3.1 40 6.3 NNW 11 19 6 10 1017.9 1017.9 0.0
14/12:30pm 15.9 12.0 3.4 43 5.7 NNE 13 17 7 9 1018.5 1018.5 0.0
14/12:00pm 15.7 12.0 4.4 47 5.3 NNE 13 19 7 10 1018.9 1019.0 0.0
14/11:30am 15.1 11.5 4.8 50 4.8 N 13 17 7 9 1019.3 1019.4 0.0
14/11:00am 14.9 11.7 3.1 45 5.3 NE 9 15 5 8 1019.5 1019.6 0.0
14/10:30am 14.1 11.1 1.7 43 5.4 N 7 15 4 8 1020.0 1020.1 0.0
14/10:00am 13.3 10.5 3.1 50 4.5 NW 7 9 4 5 1020.3 1020.4 0.0
14/09:30am 12.3 9.7 4.3 58 3.6 NW 7 11 4 6 1020.5 1020.6 0.0
14/09:00am 10.4 7.6 3.2 61 3.1 NW 7 11 4 6 1020.6 1020.7 0.0
14/08:30am 8.8 5.7 3.4 69 2.3 NW 9 11 5 6 1020.3 1020.4 0.0

Other formats

Comma delimited format used in spreadsheet applications
http://www.bom.gov.au/fwo/IDT60801/IDT60801.95981.axf

JavaScript Object Notation format (JSON) in row-major order
http://www.bom.gov.au/fwo/IDT60801/IDT60801.95981.json

Data quality

Most of these data are generated automatically and are frequently updated. Quality checks on data are not normally performed. It is possible for incorrect values to appear. Refer to information at About Latest Weather Observations and please check the disclaimer before using these data.